Time;durP1;ratioP1;P1;durP2;ratioP2;P2;SDS_P1;SDS_P2;PMS_P1;PMS_P2;Temp;Humidity;BMP_temperature;BMP_pressure;BME280_temperature;BME280_humidity;BME280_pressure;Samples;Min_cycle;Max_cycle;Signal;HPM_P1;HPM_P2
2022/10/10 00:01:22;;;;;;;4.47;3.60;;;11.30;1.00;;;;;;5048611;28;20443;-54
2022/10/10 00:03:48;;;;;;;3.33;2.73;;;11.20;1.00;;;;;;5050788;28;20438;-54
2022/10/10 00:06:15;;;;;;;4.03;3.00;;;11.20;1.00;;;;;;5051980;28;20447;-54
2022/10/10 00:08:41;;;;;;;7.70;3.03;;;11.20;1.00;;;;;;5052736;28;20277;-54
2022/10/10 00:11:07;;;;;;;2.93;2.40;;;11.20;1.00;;;;;;5047954;28;21092;-52
2022/10/10 00:13:34;;;;;;;4.43;3.03;;;11.10;1.00;;;;;;5043672;28;20480;-54
2022/10/10 00:16:00;;;;;;;6.60;2.90;;;11.10;1.00;;;;;;5051207;28;20528;-55
2022/10/10 00:18:26;;;;;;;3.40;2.83;;;11.10;1.00;;;;;;5046358;28;20497;-53
2022/10/10 00:20:52;;;;;;;6.60;3.00;;;11.10;1.00;;;;;;5042029;28;20454;-53
2022/10/10 00:23:19;;;;;;;4.53;2.80;;;11.10;1.00;;;;;;5037857;28;20642;-54
2022/10/10 00:25:45;;;;;;;4.00;2.93;;;11.00;1.00;;;;;;5043712;28;20945;-55
2022/10/10 00:28:11;;;;;;;3.40;2.80;;;11.00;1.00;;;;;;5042854;28;20854;-54
2022/10/10 00:30:37;;;;;;;7.03;2.83;;;10.90;1.00;;;;;;5041688;28;20514;-54
2022/10/10 00:33:03;;;;;;;5.87;3.03;;;11.00;1.00;;;;;;5044069;28;20471;-54
2022/10/10 00:35:28;;;;;;;5.60;3.03;;;11.10;1.00;;;;;;5041736;28;20463;-55
2022/10/10 00:37:54;;;;;;;4.53;2.70;;;11.00;1.00;;;;;;5040850;28;20536;-55
2022/10/10 00:40:21;;;;;;;4.63;2.40;;;10.90;1.00;;;;;;5042375;28;20210;-52
2022/10/10 00:42:46;;;;;;;5.90;2.93;;;10.90;1.00;;;;;;5044910;28;20213;-53
2022/10/10 00:45:33;;;;;;;3.37;2.70;;;11.00;1.00;;;;;;5042366;28;20429;-55
2022/10/10 00:48:24;;;;;;;6.93;2.97;;;11.10;1.00;;;;;;5044883;28;20453;-54
2022/10/10 00:51:23;;;;;;;3.80;2.87;;;11.10;1.00;;;;;;5049456;28;20480;-54
2022/10/10 00:53:56;;;;;;;3.90;2.67;;;11.10;1.00;;;;;;5035226;28;20573;-55
2022/10/10 00:56:27;;;;;;;3.70;2.70;;;11.20;1.00;;;;;;5048959;28;20453;-56
2022/10/10 00:58:55;;;;;;;4.13;2.30;;;11.20;1.00;;;;;;5047269;28;20879;-55
2022/10/10 01:01:21;;;;;;;4.00;2.07;;;11.00;1.00;;;;;;5050654;28;20458;-53
2022/10/10 01:03:47;;;;;;;3.77;2.43;;;11.00;1.00;;;;;;5043578;28;20974;-54
2022/10/10 01:06:12;;;;;;;3.97;2.63;;;11.00;1.00;;;;;;5044031;28;20450;-54
2022/10/10 01:08:39;;;;;;;5.43;2.90;;;11.00;1.00;;;;;;5046227;28;20409;-54
2022/10/10 01:11:20;;;;;;;3.63;2.33;;;10.90;1.00;;;;;;5046396;28;20192;-54
2022/10/10 01:13:53;;;;;;;2.77;2.53;;;10.90;1.00;;;;;;5043288;28;20827;-55
2022/10/10 01:16:29;;;;;;;5.37;2.60;;;10.90;1.00;;;;;;5044513;28;20518;-54
2022/10/10 01:19:04;;;;;;;9.60;3.03;;;11.00;1.00;;;;;;5042082;28;20452;-54
2022/10/10 01:22:02;;;;;;;5.50;3.33;;;11.00;1.00;;;;;;5040656;28;21046;-55
2022/10/10 01:24:49;;;;;;;3.00;2.17;;;11.00;1.00;;;;;;5043125;28;20434;-55
2022/10/10 01:27:25;;;;;;;3.80;2.47;;;11.00;1.00;;;;;;5046224;28;20455;-55
2022/10/10 01:29:56;;;;;;;4.43;2.80;;;10.90;1.00;;;;;;5041464;28;20448;-55
2022/10/10 01:32:30;;;;;;;5.33;2.90;;;10.90;1.00;;;;;;5039578;28;20445;-55
2022/10/10 01:35:16;;;;;;;5.80;3.00;;;11.00;1.00;;;;;;5041167;28;20964;-53
2022/10/10 01:37:47;;;;;;;6.53;3.17;;;10.90;1.00;;;;;;5043678;28;20481;-52
2022/10/10 01:40:28;;;;;;;2.90;2.60;;;10.90;1.00;;;;;;5042725;28;20797;-53
2022/10/10 01:42:58;;;;;;;3.50;2.40;;;10.90;1.00;;;;;;5040005;28;20443;-54
2022/10/10 01:45:24;;;;;;;6.50;2.87;;;10.90;1.00;;;;;;5046079;28;20446;-53
2022/10/10 01:47:51;;;;;;;4.90;3.03;;;11.00;1.00;;;;;;5044600;28;20831;-54
2022/10/10 01:50:20;;;;;;;6.27;3.27;;;10.90;1.00;;;;;;5039260;28;20195;-56
2022/10/10 01:52:51;;;;;;;5.80;3.17;;;10.90;1.00;;;;;;5047133;28;20485;-55
2022/10/10 01:55:28;;;;;;;4.77;3.00;;;10.80;1.00;;;;;;5049737;28;20978;-55
2022/10/10 01:58:40;;;;;;;6.53;2.90;;;10.90;1.00;;;;;;5044611;28;20951;-54
2022/10/10 02:01:32;;;;;;;7.73;3.00;;;10.90;1.00;;;;;;5038065;28;20426;-55
2022/10/10 02:04:10;;;;;;;3.90;2.20;;;10.90;1.00;;;;;;5042630;28;20504;-54
2022/10/10 02:06:45;;;;;;;4.30;2.90;;;10.90;1.00;;;;;;5054430;28;20447;-53
2022/10/10 02:09:17;;;;;;;3.60;2.43;;;10.90;1.00;;;;;;5045718;28;20457;-55
2022/10/10 02:11:43;;;;;;;3.70;2.97;;;10.90;1.00;;;;;;5046238;28;20428;-54
2022/10/10 02:14:20;;;;;;;3.63;2.50;;;10.90;1.00;;;;;;5042374;28;20487;-54
2022/10/10 02:16:50;;;;;;;4.40;2.47;;;10.90;1.00;;;;;;5041564;28;20628;-54
2022/10/10 02:19:18;;;;;;;3.97;2.10;;;10.90;1.00;;;;;;5043440;28;20449;-54
2022/10/10 02:21:46;;;;;;;2.50;2.27;;;10.90;1.00;;;;;;5050155;28;20454;-55
2022/10/10 02:24:13;;;;;;;3.00;2.63;;;10.90;1.00;;;;;;5042121;28;20430;-55
2022/10/10 02:26:42;;;;;;;4.10;2.80;;;10.90;1.00;;;;;;5048188;28;20454;-53
2022/10/10 02:29:21;;;;;;;5.40;2.50;;;10.90;1.00;;;;;;5039647;28;20446;-55
2022/10/10 02:31:53;;;;;;;3.33;3.03;;;10.90;1.00;;;;;;5042730;28;20447;-59
2022/10/10 02:34:32;;;;;;;2.87;2.37;;;10.80;1.00;;;;;;5047810;28;20436;-54
2022/10/10 02:37:02;;;;;;;5.10;2.60;;;10.80;1.00;;;;;;5035993;28;20447;-55
2022/10/10 02:39:32;;;;;;;3.10;2.60;;;10.90;1.00;;;;;;5046700;28;20448;-53
2022/10/10 02:41:57;;;;;;;6.60;2.53;;;10.90;1.00;;;;;;5044968;28;20442;-54
2022/10/10 02:44:24;;;;;;;3.50;2.33;;;10.90;1.00;;;;;;5045938;28;20481;-54
2022/10/10 02:46:50;;;;;;;6.23;2.70;;;10.90;1.00;;;;;;5040556;28;20187;-54
2022/10/10 02:49:23;;;;;;;3.60;2.50;;;10.90;1.00;;;;;;5047777;28;20442;-55
2022/10/10 02:51:49;;;;;;;4.97;2.67;;;10.90;1.00;;;;;;5048837;28;20650;-55
2022/10/10 02:54:14;;;;;;;7.33;2.70;;;10.90;1.00;;;;;;5048193;28;20455;-52
2022/10/10 02:56:40;;;;;;;2.57;2.37;;;11.00;1.00;;;;;;5044653;28;20185;-58
2022/10/10 02:59:05;;;;;;;4.60;2.30;;;11.00;1.00;;;;;;5044817;28;20252;-59
2022/10/10 03:01:31;;;;;;;2.97;2.13;;;11.00;1.00;;;;;;5049963;28;20273;-58
2022/10/10 03:03:56;;;;;;;3.63;2.43;;;11.10;1.00;;;;;;5055584;28;20329;-58
2022/10/10 03:06:22;;;;;;;3.87;2.03;;;11.10;1.00;;;;;;5043580;28;20262;-55
2022/10/10 03:08:47;;;;;;;3.27;2.73;;;11.10;1.00;;;;;;5047506;28;20189;-55
2022/10/10 03:11:13;;;;;;;5.10;3.17;;;11.10;1.00;;;;;;5046966;28;20227;-55
2022/10/10 03:13:38;;;;;;;4.70;3.07;;;11.20;1.00;;;;;;5046715;28;20220;-55
2022/10/10 03:16:05;;;;;;;3.50;2.40;;;13.50;1.00;;;;;;5048116;28;20570;-53
2022/10/10 03:18:31;;;;;;;3.37;2.20;;;11.20;1.00;;;;;;5048682;28;20188;-54
2022/10/10 03:20:57;;;;;;;9.20;2.93;;;11.20;1.00;;;;;;5050415;28;20427;-55
2022/10/10 03:23:25;;;;;;;4.90;2.67;;;11.30;1.00;;;;;;5047242;28;20457;-54
2022/10/10 03:25:50;;;;;;;2.73;2.33;;;11.30;1.00;;;;;;5045921;28;20191;-55
2022/10/10 03:28:16;;;;;;;5.53;2.83;;;11.20;1.00;;;;;;5050664;28;20453;-54
2022/10/10 03:30:42;;;;;;;3.73;2.50;;;11.20;1.00;;;;;;5049968;28;20195;-53
2022/10/10 03:33:08;;;;;;;3.83;2.80;;;11.20;1.00;;;;;;5046840;28;20226;-54
2022/10/10 03:35:34;;;;;;;3.80;2.60;;;11.10;1.00;;;;;;5040430;28;21686;-53
2022/10/10 03:37:59;;;;;;;5.03;2.43;;;11.20;1.00;;;;;;5053413;28;20495;-53
2022/10/10 03:40:26;;;;;;;4.23;2.37;;;11.30;1.00;;;;;;5045118;28;20241;-54
2022/10/10 03:42:52;;;;;;;5.60;2.67;;;11.10;1.00;;;;;;5047184;28;20661;-54
2022/10/10 03:45:17;;;;;;;4.13;2.63;;;11.20;1.00;;;;;;5047979;28;20439;-53
2022/10/10 03:47:43;;;;;;;7.50;2.60;;;11.20;1.00;;;;;;5041963;28;20660;-55
2022/10/10 03:50:09;;;;;;;3.33;3.03;;;;;;;;;;5050598;28;20204;-54
2022/10/10 03:52:35;;;;;;;3.20;2.90;;;11.20;1.00;;;;;;5044817;28;20240;-55
2022/10/10 03:55:01;;;;;;;4.80;2.77;;;11.10;1.00;;;;;;5046059;28;20495;-54
2022/10/10 03:57:27;;;;;;;4.27;2.90;;;11.10;1.00;;;;;;5046850;28;20188;-53
2022/10/10 03:59:52;;;;;;;4.17;2.50;;;11.10;1.00;;;;;;5044635;28;20191;-56
2022/10/10 04:02:18;;;;;;;4.93;2.33;;;11.10;1.00;;;;;;5044199;28;20523;-54
2022/10/10 04:04:43;;;;;;;4.60;2.80;;;11.00;1.00;;;;;;5038743;28;20200;-54
2022/10/10 04:07:09;;;;;;;3.20;2.87;;;11.00;1.00;;;;;;5043953;28;20209;-54
2022/10/10 04:09:34;;;;;;;5.43;2.60;;;11.00;1.00;;;;;;5043748;28;20196;-55
2022/10/10 04:12:00;;;;;;;3.30;2.60;;;10.90;1.00;;;;;;5049965;28;21904;-53
2022/10/10 04:14:26;;;;;;;3.80;2.60;;;10.90;1.00;;;;;;5051532;28;20193;-54
2022/10/10 04:16:51;;;;;;;4.00;2.67;;;10.90;1.00;;;;;;5050343;28;20193;-54
2022/10/10 04:19:17;;;;;;;7.53;2.90;;;11.00;1.00;;;;;;5051574;28;20185;-54
2022/10/10 04:21:43;;;;;;;7.33;3.10;;;11.00;1.00;;;;;;5048880;28;20179;-57
2022/10/10 04:24:09;;;;;;;3.40;2.67;;;11.00;1.00;;;;;;5051872;28;20274;-54
2022/10/10 04:26:35;;;;;;;4.47;2.63;;;11.00;1.00;;;;;;5054898;28;20480;-57
2022/10/10 04:29:01;;;;;;;5.10;3.00;;;11.00;1.00;;;;;;5052256;28;20474;-54
2022/10/10 04:31:26;;;;;;;3.13;2.73;;;10.90;1.00;;;;;;5057984;28;20188;-56
2022/10/10 04:33:52;;;;;;;6.27;2.90;;;10.90;1.00;;;;;;5051843;28;20207;-55
2022/10/10 04:36:17;;;;;;;5.00;2.77;;;10.90;1.00;;;;;;5052372;28;20262;-54
2022/10/10 04:38:43;;;;;;;4.63;2.33;;;10.90;1.00;;;;;;5052042;28;20676;-55
2022/10/10 04:41:09;;;;;;;6.67;3.00;;;10.90;1.00;;;;;;5049678;28;20288;-53
2022/10/10 04:43:35;;;;;;;4.90;3.20;;;10.80;1.00;;;;;;5045007;28;20263;-56
2022/10/10 04:46:00;;;;;;;3.77;2.80;;;10.80;1.00;;;;;;5059440;28;20194;-55
2022/10/10 04:48:26;;;;;;;8.23;3.90;;;10.90;1.00;;;;;;5047093;28;20198;-54
2022/10/10 04:50:56;;;;;;;4.33;3.00;;;10.90;1.00;;;;;;5049496;28;20199;-54
2022/10/10 04:53:22;;;;;;;7.20;2.60;;;11.00;1.00;;;;;;5055024;28;20209;-55
2022/10/10 04:55:48;;;;;;;5.97;2.87;;;11.00;1.00;;;;;;5048063;28;20433;-55
2022/10/10 04:58:13;;;;;;;5.10;2.93;;;11.00;1.00;;;;;;5047013;28;20454;-53
2022/10/10 05:00:39;;;;;;;3.33;3.03;;;11.00;1.00;;;;;;5048671;28;20458;-56
2022/10/10 05:03:05;;;;;;;6.57;3.33;;;10.90;1.00;;;;;;5049753;28;20191;-55
2022/10/10 05:05:31;;;;;;;10.67;3.23;;;11.00;1.00;;;;;;5051140;28;20215;-53
2022/10/10 05:07:57;;;;;;;4.60;2.50;;;11.00;1.00;;;;;;5050845;28;20503;-54
2022/10/10 05:10:24;;;;;;;6.10;3.20;;;11.10;1.00;;;;;;5047059;28;20449;-53
2022/10/10 05:12:49;;;;;;;5.63;2.90;;;11.10;1.00;;;;;;5050681;28;20222;-54
2022/10/10 05:15:16;;;;;;;4.80;2.93;;;11.00;1.00;;;;;;5048822;28;20772;-56
2022/10/10 05:17:41;;;;;;;5.43;3.00;;;11.10;1.00;;;;;;5053829;28;20440;-56
2022/10/10 05:20:07;;;;;;;8.50;2.90;;;11.00;1.00;;;;;;5048863;28;21028;-56
2022/10/10 05:22:33;;;;;;;3.67;2.70;;;11.10;1.00;;;;;;5045127;28;20294;-55
2022/10/10 05:24:59;;;;;;;4.33;3.30;;;11.00;1.00;;;;;;5049340;28;21008;-56
2022/10/10 05:27:25;;;;;;;7.67;3.17;;;11.00;1.00;;;;;;5051088;28;20638;-54
2022/10/10 05:29:51;;;;;;;3.97;3.07;;;11.00;1.00;;;;;;5044268;28;20195;-54
2022/10/10 05:32:17;;;;;;;3.00;2.70;;;11.00;1.00;;;;;;5046281;28;20476;-54
2022/10/10 05:34:43;;;;;;;3.30;3.00;;;11.00;1.00;;;;;;5049775;28;20445;-55
2022/10/10 05:37:08;;;;;;;3.60;3.30;;;11.00;1.00;;;;;;5049702;28;20192;-56
2022/10/10 05:39:34;;;;;;;7.43;2.80;;;11.10;1.00;;;;;;5046015;28;20520;-55
2022/10/10 05:42:00;;;;;;;5.77;3.43;;;11.10;1.00;;;;;;5049660;28;20180;-53
2022/10/10 05:44:25;;;;;;;5.80;2.87;;;11.10;1.00;;;;;;5048648;28;20296;-54
2022/10/10 05:46:51;;;;;;;3.27;2.60;;;11.10;1.00;;;;;;5049869;28;20450;-55
2022/10/10 05:49:18;;;;;;;4.70;3.40;;;11.20;1.00;;;;;;5049599;28;20661;-55
2022/10/10 05:51:44;;;;;;;4.83;3.00;;;11.20;1.00;;;;;;5045284;28;20431;-54
2022/10/10 05:54:09;;;;;;;3.53;2.87;;;11.20;1.00;;;;;;5049303;28;20479;-56
2022/10/10 05:56:35;;;;;;;4.60;3.10;;;11.30;1.00;;;;;;5050541;28;20194;-56
2022/10/10 05:59:00;;;;;;;4.57;3.40;;;11.30;1.00;;;;;;5047937;28;20223;-57
2022/10/10 06:01:26;;;;;;;4.07;2.60;;;11.40;1.00;;;;;;5050519;28;20193;-55
2022/10/10 06:03:54;;;;;;;3.70;3.20;;;11.40;1.00;;;;;;5050603;28;20189;-55
2022/10/10 06:06:21;;;;;;;3.40;3.10;;;11.40;1.00;;;;;;5047872;28;20272;-57
2022/10/10 06:08:47;;;;;;;3.30;2.53;;;11.40;1.00;;;;;;5046912;28;20455;-56
2022/10/10 06:11:14;;;;;;;3.90;3.17;;;11.40;1.00;;;;;;5049833;28;20437;-54
2022/10/10 06:13:40;;;;;;;7.00;3.70;;;11.50;1.00;;;;;;5049630;28;20209;-54
2022/10/10 06:16:06;;;;;;;4.00;3.03;;;11.60;1.00;;;;;;5048298;28;20814;-55
2022/10/10 06:18:31;;;;;;;6.10;3.27;;;11.70;1.00;;;;;;5052271;28;20176;-56
2022/10/10 06:21:04;;;;;;;3.60;3.10;;;11.70;1.00;;;;;;5049472;28;20193;-54
2022/10/10 06:23:30;;;;;;;3.00;2.80;;;11.70;1.00;;;;;;5047241;28;20198;-56
2022/10/10 06:25:55;;;;;;;4.50;3.10;;;11.80;1.00;;;;;;5049674;28;20423;-56
2022/10/10 06:28:21;;;;;;;4.80;2.93;;;12.00;1.00;;;;;;5050322;28;20190;-53
2022/10/10 06:30:49;;;;;;;5.77;2.77;;;12.10;1.00;;;;;;5048135;28;20282;-56
2022/10/10 06:33:17;;;;;;;5.73;3.20;;;12.20;1.00;;;;;;5047783;28;20508;-53
2022/10/10 06:35:45;;;;;;;5.73;3.17;;;12.20;1.00;;;;;;5050064;28;20452;-56
2022/10/10 06:38:12;;;;;;;3.97;3.10;;;12.30;1.00;;;;;;5054473;28;20429;-56
2022/10/10 06:40:39;;;;;;;4.07;3.27;;;12.40;1.00;;;;;;5048742;28;20449;-52
2022/10/10 06:43:10;;;;;;;6.37;3.27;;;12.60;1.00;;;;;;5045549;28;20498;-52
2022/10/10 06:45:40;;;;;;;4.87;2.80;;;12.60;1.00;;;;;;5056723;28;20419;-56
2022/10/10 06:48:06;;;;;;;3.40;3.03;;;12.70;1.00;;;;;;5070087;28;20457;-56
2022/10/10 06:50:31;;;;;;;3.67;2.70;;;12.80;1.00;;;;;;5052669;28;20449;-55
2022/10/10 06:52:57;;;;;;;4.77;2.87;;;12.90;1.00;;;;;;5049396;28;20473;-54
2022/10/10 06:55:23;;;;;;;5.90;2.77;;;12.90;1.00;;;;;;5053352;28;20636;-53
2022/10/10 06:57:48;;;;;;;4.00;2.87;;;13.00;1.00;;;;;;5063423;28;20465;-55
2022/10/10 07:00:14;;;;;;;3.73;3.30;;;12.90;1.00;;;;;;5063812;28;20189;-55
2022/10/10 07:02:41;;;;;;;4.40;3.50;;;12.90;1.00;;;;;;5053657;28;20281;-55
2022/10/10 07:05:10;;;;;;;2.73;2.47;;;13.10;1.00;;;;;;5050754;28;20280;-53
2022/10/10 07:07:37;;;;;;;4.53;3.33;;;13.10;1.00;;;;;;5051984;28;20536;-55
2022/10/10 07:10:03;;;;;;;4.63;2.77;;;13.10;1.00;;;;;;5046725;28;20454;-55
2022/10/10 07:12:29;;;;;;;3.33;2.90;;;13.20;1.00;;;;;;5054618;28;20576;-54
2022/10/10 07:14:54;;;;;;;3.50;2.87;;;13.20;1.00;;;;;;5053568;28;20464;-55
2022/10/10 07:17:20;;;;;;;4.17;3.03;;;13.30;1.00;;;;;;5062252;28;20192;-55
2022/10/10 07:19:47;;;;;;;6.47;2.97;;;13.30;1.00;;;;;;5053290;28;20219;-56
2022/10/10 07:22:13;;;;;;;5.80;3.43;;;13.30;1.00;;;;;;5050913;28;20196;-54
2022/10/10 07:24:38;;;;;;;4.57;3.10;;;13.50;1.00;;;;;;5051723;28;20442;-54
2022/10/10 07:27:04;;;;;;;3.33;2.90;;;13.60;1.00;;;;;;5046184;28;20256;-56
2022/10/10 07:29:29;;;;;;;2.73;2.50;;;13.70;1.00;;;;;;5051979;28;20338;-56
2022/10/10 07:31:56;;;;;;;4.13;3.00;;;13.70;1.00;;;;;;5049147;28;20189;-57
2022/10/10 07:34:21;;;;;;;5.27;2.63;;;13.70;1.00;;;;;;5051501;28;20306;-53
2022/10/10 07:36:49;;;;;;;3.77;2.60;;;13.80;1.00;;;;;;5056628;28;20487;-53
2022/10/10 07:39:18;;;;;;;6.23;3.03;;;13.90;1.00;;;;;;5050017;28;20189;-54
2022/10/10 07:41:44;;;;;;;4.87;3.20;;;14.00;1.00;;;;;;5051331;28;21729;-56
2022/10/10 07:44:10;;;;;;;5.07;3.50;;;14.20;1.00;;;;;;5049864;28;20479;-55
2022/10/10 07:46:35;;;;;;;4.83;3.60;;;14.20;1.00;;;;;;5050038;28;20645;-53
2022/10/10 07:49:01;;;;;;;3.80;2.63;;;14.40;1.00;;;;;;5049676;28;20198;-52
2022/10/10 07:51:26;;;;;;;7.43;3.30;;;14.50;1.00;;;;;;5049195;28;20530;-53
2022/10/10 07:53:52;;;;;;;8.53;3.70;;;14.50;1.00;;;;;;5048093;28;20211;-55
2022/10/10 07:56:17;;;;;;;8.53;3.40;;;14.70;1.00;;;;;;5050314;28;20592;-54
2022/10/10 07:58:43;;;;;;;6.43;3.37;;;14.70;1.00;;;;;;5049581;28;20200;-53
2022/10/10 08:01:11;;;;;;;10.90;3.50;;;14.80;1.00;;;;;;5049202;28;20228;-54
2022/10/10 08:03:38;;;;;;;4.33;3.43;;;15.30;1.00;;;;;;5049010;28;20546;-56
2022/10/10 08:06:06;;;;;;;3.67;3.37;;;15.00;1.00;;;;;;5050539;28;20504;-57
2022/10/10 08:08:33;;;;;;;5.10;3.47;;;15.00;1.00;;;;;;5045809;28;20451;-54
2022/10/10 08:10:59;;;;;;;10.43;3.30;;;15.10;1.00;;;;;;5051045;28;20469;-54
2022/10/10 08:13:25;;;;;;;6.47;2.80;;;15.20;1.00;;;;;;5048244;28;20445;-57
2022/10/10 08:15:51;;;;;;;5.50;4.30;;;15.30;1.00;;;;;;5047830;28;20183;-53
2022/10/10 08:18:18;;;;;;;3.97;2.73;;;15.40;1.00;;;;;;5049443;28;20445;-55
2022/10/10 08:20:43;;;;;;;3.47;3.17;;;15.40;1.00;;;;;;5050401;28;21001;-53
2022/10/10 08:23:09;;;;;;;6.97;3.70;;;15.50;1.00;;;;;;5050856;28;20488;-55
2022/10/10 08:25:35;;;;;;;8.77;3.23;;;15.70;1.00;;;;;;5050599;28;20599;-55
2022/10/10 08:28:00;;;;;;;4.67;3.13;;;15.80;1.00;;;;;;5051493;28;20295;-54
2022/10/10 08:30:26;;;;;;;6.43;3.50;;;15.70;1.00;;;;;;5050985;28;20248;-55
2022/10/10 08:32:52;;;;;;;5.73;3.70;;;15.80;1.00;;;;;;5051812;28;20203;-56
2022/10/10 08:35:17;;;;;;;8.23;3.07;;;15.80;1.00;;;;;;5051467;28;20658;-55
2022/10/10 08:37:43;;;;;;;8.70;2.90;;;15.90;1.00;;;;;;5051535;28;20636;-56
2022/10/10 08:40:14;;;;;;;3.50;3.20;;;15.90;1.00;;;;;;5050799;28;20274;-55
2022/10/10 08:42:45;;;;;;;7.00;3.70;;;15.90;1.00;;;;;;5014043;28;1068523;-55
2022/10/10 08:45:15;;;;;;;6.77;3.40;;;15.80;1.00;;;;;;5052494;28;20534;-54
2022/10/10 08:47:48;;;;;;;6.97;3.07;;;15.80;1.00;;;;;;5052330;28;20406;-55
2022/10/10 08:50:20;;;;;;;7.53;3.40;;;15.90;1.00;;;;;;5052294;28;20482;-55
2022/10/10 08:53:15;;;;;;;7.27;3.40;;;16.00;1.00;;;;;;5050772;28;20489;-56
2022/10/10 08:55:43;;;;;;;5.63;3.43;;;16.00;1.00;;;;;;5052084;28;20508;-54
2022/10/10 08:58:15;;;;;;;5.70;2.90;;;16.10;1.00;;;;;;5052200;28;20474;-55
2022/10/10 09:00:50;;;;;;;4.70;2.87;;;16.20;1.00;;;;;;5051902;28;21116;-55
2022/10/10 09:03:32;;;;;;;8.60;3.20;;;16.20;1.00;;;;;;5051969;28;20744;-54
2022/10/10 09:06:36;;;;;;;5.90;3.27;;;16.30;1.00;;;;;;5051897;28;20442;-55
2022/10/10 09:09:32;;;;;;;14.93;3.63;;;16.40;1.00;;;;;;5029383;28;20469;-55
2022/10/10 09:12:13;;;;;;;5.47;3.33;;;16.40;1.00;;;;;;5049747;28;20885;-55
2022/10/10 09:14:57;;;;;;;4.80;3.80;;;16.50;1.00;;;;;;5057192;28;20417;-56
2022/10/10 09:17:52;;;;;;;6.60;2.83;;;16.60;1.00;;;;;;5071543;28;20840;-55
2022/10/10 09:20:36;;;;;;;4.97;2.83;;;16.60;1.00;;;;;;5071372;28;20524;-56
2022/10/10 09:23:29;;;;;;;4.80;3.40;;;16.70;1.00;;;;;;5071246;28;20409;-53
2022/10/10 09:26:04;;;;;;;3.93;3.17;;;16.70;1.00;;;;;;5071555;28;20954;-55
2022/10/10 09:28:41;;;;;;;4.10;3.10;;;16.80;1.00;;;;;;5071323;28;20419;-55
2022/10/10 09:31:18;;;;;;;5.77;3.10;;;16.80;1.00;;;;;;5064176;28;20899;-55
2022/10/10 09:33:52;;;;;;;6.90;3.30;;;16.90;1.00;;;;;;5049173;28;20522;-55
2022/10/10 09:36:22;;;;;;;5.37;3.80;;;17.00;1.00;;;;;;5051261;28;20412;-55
2022/10/10 09:38:53;;;;;;;5.80;3.70;;;17.20;1.00;;;;;;5051165;28;20441;-53
2022/10/10 09:41:30;;;;;;;8.43;3.70;;;17.20;1.00;;;;;;5051279;28;20933;-54
2022/10/10 09:43:57;;;;;;;5.17;3.00;;;17.60;1.00;;;;;;5050874;28;20478;-54
2022/10/10 09:46:24;;;;;;;5.67;3.57;;;18.00;1.00;;;;;;5051320;28;20417;-55
2022/10/10 09:48:50;;;;;;;4.27;3.63;;;18.60;1.00;;;;;;5050960;28;20757;-56
2022/10/10 09:51:17;;;;;;;4.50;3.73;;;19.10;1.00;;;;;;5050914;28;20445;-54
2022/10/10 09:53:46;;;;;;;5.77;3.43;;;19.10;1.00;;;;;;5050895;28;20442;-55
2022/10/10 09:56:18;;;;;;;3.50;3.00;;;19.20;1.00;;;;;;5051190;28;20921;-56
2022/10/10 09:58:47;;;;;;;3.40;3.10;;;19.30;1.00;;;;;;5050813;28;20444;-54
2022/10/10 10:01:28;;;;;;;3.50;2.80;;;19.40;1.00;;;;;;5050680;28;20921;-54
2022/10/10 10:04:06;;;;;;;5.00;3.30;;;19.70;1.00;;;;;;5050169;28;20437;-54
2022/10/10 10:06:31;;;;;;;2.93;2.63;;;19.70;1.00;;;;;;5050899;28;20412;-53
2022/10/10 10:09:01;;;;;;;7.80;3.40;;;19.70;1.00;;;;;;5050296;28;20566;-56
2022/10/10 10:11:32;;;;;;;3.33;3.03;;;19.60;1.00;;;;;;5050235;28;20513;-55
2022/10/10 10:14:01;;;;;;;6.63;3.40;;;19.60;1.00;;;;;;5050420;28;20462;-56
2022/10/10 10:16:37;;;;;;;6.77;3.53;;;19.70;1.00;;;;;;5050626;28;20406;-55
2022/10/10 10:19:06;;;;;;;5.73;3.37;;;19.60;1.00;;;;;;5050263;28;20454;-53
2022/10/10 10:21:45;;;;;;;5.70;3.53;;;19.50;1.00;;;;;;5050764;28;20408;-55
2022/10/10 10:24:27;;;;;;;5.80;3.70;;;19.60;1.00;;;;;;5050469;28;20748;-55
2022/10/10 10:26:53;;;;;;;8.80;3.83;;;19.40;1.00;;;;;;5050529;28;20440;-55
2022/10/10 10:29:31;;;;;;;4.30;3.37;;;19.40;1.00;;;;;;5049004;28;20454;-56
2022/10/10 10:32:21;;;;;;;4.23;3.83;;;19.20;1.00;;;;;;5050037;28;20185;-55
2022/10/10 10:34:56;;;;;;;6.30;3.40;;;19.20;1.00;;;;;;5050555;28;20424;-54
2022/10/10 10:37:34;;;;;;;7.73;3.40;;;19.10;1.00;;;;;;5050138;28;20821;-54
2022/10/10 10:40:19;;;;;;;3.57;3.20;;;19.10;1.00;;;;;;5059208;28;20420;-55
2022/10/10 10:43:00;;;;;;;4.50;3.33;;;19.20;1.00;;;;;;5069969;28;20860;-55
2022/10/10 10:45:34;;;;;;;5.87;4.23;;;19.30;1.00;;;;;;5069969;28;20407;-56
2022/10/10 10:48:25;;;;;;;6.87;3.40;;;19.40;1.00;;;;;;5070447;28;20409;-53
2022/10/10 10:51:20;;;;;;;5.43;2.90;;;19.50;1.00;;;;;;5070228;28;20434;-56
2022/10/10 10:54:05;;;;;;;3.13;2.80;;;19.50;1.00;;;;;;5070300;28;20435;-55
2022/10/10 10:56:42;;;;;;;6.03;3.40;;;19.30;1.00;;;;;;5058694;28;20406;-53
2022/10/10 10:59:30;;;;;;;4.63;3.50;;;19.30;1.00;;;;;;5070207;28;20405;-53
2022/10/10 11:02:29;;;;;;;5.00;3.33;;;19.30;1.00;;;;;;5037697;28;20475;-56
2022/10/10 11:05:22;;;;;;;4.57;3.33;;;19.40;1.00;;;;;;5050214;28;20951;-55
2022/10/10 11:07:58;;;;;;;4.57;3.57;;;19.50;1.00;;;;;;5050353;28;20807;-53
2022/10/10 11:10:34;;;;;;;4.87;3.70;;;19.40;1.00;;;;;;5049714;28;20502;-56
2022/10/10 11:13:21;;;;;;;6.50;3.47;;;19.40;1.00;;;;;;5049944;28;20564;-55
2022/10/10 11:16:14;;;;;;;5.10;3.50;;;19.40;1.00;;;;;;5049891;28;20897;-54
2022/10/10 11:18:59;;;;;;;4.30;3.50;;;19.40;1.00;;;;;;5049922;28;20431;-52
2022/10/10 11:21:26;;;;;;;5.43;3.33;;;19.30;1.00;;;;;;5049976;28;20467;-55
2022/10/10 11:24:01;;;;;;;4.40;3.50;;;18.90;1.00;;;;;;5050138;28;20506;-54
2022/10/10 11:26:35;;;;;;;5.13;3.17;;;19.00;1.00;;;;;;5049987;28;20434;-53
2022/10/10 11:29:21;;;;;;;3.97;3.27;;;18.70;1.00;;;;;;5054400;28;20419;-56
2022/10/10 11:32:18;;;;;;;6.47;3.93;;;18.70;1.00;;;;;;5055740;28;20428;-54
2022/10/10 11:35:13;;;;;;;6.57;3.50;;;18.70;1.00;;;;;;5049229;28;20452;-56
2022/10/10 11:37:43;;;;;;;6.40;4.00;;;18.90;1.00;;;;;;5048393;28;20541;-56
2022/10/10 11:40:31;;;;;;;8.20;4.10;;;18.90;1.00;;;;;;5053568;28;20469;-55
2022/10/10 11:43:06;;;;;;;7.40;3.27;;;18.90;1.00;;;;;;5052938;28;20529;-55
2022/10/10 11:45:44;;;;;;;6.43;3.47;;;18.80;1.00;;;;;;5051670;28;20449;-55
2022/10/10 11:48:42;;;;;;;5.73;3.47;;;18.90;1.00;;;;;;5053469;28;20440;-56
2022/10/10 11:51:30;;;;;;;6.33;3.50;;;19.10;1.00;;;;;;5071149;28;20432;-55
2022/10/10 11:54:00;;;;;;;5.03;3.07;;;19.30;1.00;;;;;;5073038;28;20474;-56
2022/10/10 11:56:33;;;;;;;4.20;3.80;;;19.40;1.00;;;;;;5071933;28;20437;-55
2022/10/10 11:59:29;;;;;;;4.10;3.00;;;19.40;1.00;;;;;;5073212;28;20437;-53
2022/10/10 12:01:59;;;;;;;4.80;3.83;;;19.50;1.00;;;;;;5051578;28;20853;-55
2022/10/10 12:04:34;;;;;;;4.57;3.67;;;19.60;1.00;;;;;;5052751;28;20475;-54
2022/10/10 12:07:13;;;;;;;4.40;3.70;;;19.60;1.00;;;;;;5052880;28;20502;-54
2022/10/10 12:09:44;;;;;;;5.27;3.63;;;19.50;1.00;;;;;;5052703;28;20816;-53
2022/10/10 12:12:19;;;;;;;5.87;4.10;;;19.30;1.00;;;;;;5052746;28;20516;-55
2022/10/10 12:14:52;;;;;;;4.97;3.50;;;19.20;1.00;;;;;;5052606;28;20506;-56
2022/10/10 12:17:28;;;;;;;4.40;4.00;;;19.10;1.00;;;;;;5052626;28;20427;-56
2022/10/10 12:19:54;;;;;;;7.73;4.33;;;19.20;1.00;;;;;;5052878;28;20427;-55
2022/10/10 12:22:24;;;;;;;4.40;3.70;;;19.40;1.00;;;;;;5052792;28;20512;-56
2022/10/10 12:25:18;;;;;;;6.27;4.27;;;19.40;1.00;;;;;;5052325;28;20924;-55
2022/10/10 12:28:06;;;;;;;4.00;3.70;;;19.70;1.00;;;;;;5052306;28;20449;-55
2022/10/10 12:30:31;;;;;;;7.40;6.50;;;20.00;1.00;;;;;;5040549;28;20847;-55
2022/10/10 12:32:57;;;;;;;5.33;4.40;;;20.30;1.00;;;;;;5066746;28;20536;-55
2022/10/10 12:35:38;;;;;;;7.40;3.40;;;20.60;1.00;;;;;;5072291;28;20193;-56
2022/10/10 12:38:04;;;;;;;5.60;4.10;;;20.70;1.00;;;;;;5071891;28;20182;-53
2022/10/10 12:40:30;;;;;;;5.10;4.10;;;21.20;1.00;;;;;;5072278;28;20469;-54
2022/10/10 12:42:56;;;;;;;10.00;4.10;;;21.30;1.00;;;;;;5072017;28;20240;-54
2022/10/10 12:45:27;;;;;;;4.20;3.80;;;21.40;1.00;;;;;;5072103;28;20448;-55
2022/10/10 12:48:04;;;;;;;7.43;3.90;;;21.40;1.00;;;;;;5070989;28;20218;-54
2022/10/10 12:50:33;;;;;;;5.13;3.40;;;20.90;1.00;;;;;;5050922;28;20446;-54
2022/10/10 12:53:10;;;;;;;5.00;4.10;;;20.90;1.00;;;;;;5051737;28;20517;-53
2022/10/10 12:55:46;;;;;;;6.70;3.90;;;20.60;1.00;;;;;;5052071;28;20413;-56
2022/10/10 12:58:22;;;;;;;6.17;3.63;;;20.30;1.00;;;;;;5051650;28;20506;-55
2022/10/10 13:00:49;;;;;;;4.60;4.20;;;20.10;1.00;;;;;;5051961;28;20918;-55
2022/10/10 13:03:25;;;;;;;8.67;4.27;;;19.80;1.00;;;;;;5049907;28;20422;-56
2022/10/10 13:05:51;;;;;;;8.63;3.83;;;19.80;1.00;;;;;;5051070;28;20975;-51
2022/10/10 13:08:22;;;;;;;6.17;4.53;;;19.70;1.00;;;;;;5062844;28;20421;-55
2022/10/10 13:11:06;;;;;;;13.03;4.13;;;19.70;1.00;;;;;;5071243;28;20476;-53
2022/10/10 13:13:31;;;;;;;9.57;4.10;;;19.80;1.00;;;;;;5071312;28;20476;-54
2022/10/10 13:16:03;;;;;;;8.57;4.40;;;19.90;1.00;;;;;;5070289;28;20481;-53
2022/10/10 13:18:32;;;;;;;6.97;4.23;;;20.10;1.00;;;;;;5052818;28;20186;-52